Time;durP1;ratioP1;P1;durP2;ratioP2;P2;SDS_P1;SDS_P2;PMS_P1;PMS_P2;Temp;Humidity;BMP_temperature;BMP_pressure;BME280_temperature;BME280_humidity;BME280_pressure;Samples;Min_cycle;Max_cycle;Signal;HPM_P1;HPM_P2
2023/05/10 00:00:23;;;;;;;21.77;13.20;;;14.00;99.90;;;;;;5005694;28;20245;-62
2023/05/10 00:02:50;;;;;;;20.60;13.67;;;14.10;99.90;;;;;;5004603;28;20194;-62
2023/05/10 00:05:18;;;;;;;24.80;14.67;;;14.10;99.90;;;;;;5000031;28;20223;-62
2023/05/10 00:07:45;;;;;;;25.00;14.23;;;13.90;99.90;;;;;;4999416;28;20240;-62
2023/05/10 00:10:12;;;;;;;24.80;15.67;;;14.00;99.90;;;;;;4992579;28;20203;-62
2023/05/10 00:12:40;;;;;;;24.73;15.43;;;13.90;99.90;;;;;;4998439;28;20267;-62
2023/05/10 00:15:07;;;;;;;25.87;15.13;;;13.80;99.90;;;;;;5005354;28;20286;-62
2023/05/10 00:17:34;;;;;;;29.87;15.90;;;13.80;99.90;;;;;;5018162;28;20233;-62
2023/05/10 00:20:02;;;;;;;24.37;15.03;;;13.70;99.90;;;;;;5002137;28;20292;-62
2023/05/10 00:22:28;;;;;;;24.50;14.13;;;13.70;99.90;;;;;;5005353;28;20208;-62
2023/05/10 00:24:55;;;;;;;26.10;14.90;;;13.80;99.90;;;;;;5003788;28;20201;-62
2023/05/10 00:27:22;;;;;;;24.60;13.97;;;13.60;99.90;;;;;;5004077;28;20219;-62
2023/05/10 00:29:49;;;;;;;23.93;14.37;;;13.60;99.90;;;;;;4999730;28;20321;-62
2023/05/10 00:32:16;;;;;;;23.20;13.67;;;13.60;99.90;;;;;;5002681;28;20231;-62
2023/05/10 00:34:43;;;;;;;23.23;13.80;;;13.50;99.90;;;;;;4986230;28;20272;-62
2023/05/10 00:37:10;;;;;;;25.40;13.30;;;13.50;99.90;;;;;;5002656;28;20310;-62
2023/05/10 00:39:37;;;;;;;26.43;14.67;;;13.50;99.90;;;;;;5003377;28;20700;-62
2023/05/10 00:42:04;;;;;;;24.00;14.30;;;13.40;99.90;;;;;;5002269;28;20212;-62
2023/05/10 00:44:31;;;;;;;30.73;14.47;;;13.50;99.90;;;;;;5001656;28;20251;-62
2023/05/10 00:46:59;;;;;;;22.30;13.53;;;13.60;99.90;;;;;;4999636;28;20832;-62
2023/05/10 00:49:26;;;;;;;21.90;12.50;;;13.60;99.90;;;;;;5019049;28;20644;-61
2023/05/10 00:51:53;;;;;;;22.40;12.43;;;13.50;99.90;;;;;;4985365;28;20440;-62
2023/05/10 00:54:20;;;;;;;25.43;12.37;;;13.40;99.90;;;;;;5003009;28;20199;-62
2023/05/10 00:56:49;;;;;;;27.40;12.40;;;13.50;99.90;;;;;;5003888;28;20222;-62
2023/05/10 00:59:16;;;;;;;24.60;12.57;;;13.40;99.90;;;;;;5004130;28;20220;-62
2023/05/10 01:01:47;;;;;;;23.00;13.37;;;13.40;99.90;;;;;;5004339;28;20200;-62
2023/05/10 01:04:15;;;;;;;26.53;13.03;;;13.40;99.90;;;;;;5000599;28;20290;-62
2023/05/10 01:06:42;;;;;;;23.47;12.07;;;13.40;99.90;;;;;;5000898;28;20577;-62
2023/05/10 01:09:11;;;;;;;26.40;13.13;;;13.50;99.90;;;;;;5001536;28;21166;-62
2023/05/10 01:11:39;;;;;;;25.67;12.13;;;13.50;99.90;;;;;;4995368;28;20208;-62
2023/05/10 01:14:06;;;;;;;28.20;13.33;;;13.60;99.90;;;;;;5000711;28;20707;-62
2023/05/10 01:16:37;;;;;;;28.93;15.07;;;13.60;99.90;;;;;;5000541;28;20197;-62
2023/05/10 01:19:23;;;;;;;27.63;11.97;;;13.50;99.90;;;;;;5005756;28;20328;-62
2023/05/10 01:22:10;;;;;;;27.90;13.47;;;13.60;99.90;;;;;;5006282;28;20204;-62
2023/05/10 01:24:56;;;;;;;28.87;13.03;;;13.50;99.90;;;;;;5003536;28;20204;-62
2023/05/10 01:27:50;;;;;;;28.00;13.30;;;13.50;99.90;;;;;;5023707;28;20233;-62
2023/05/10 01:30:55;;;;;;;29.90;13.30;;;13.50;99.90;;;;;;5005893;28;20262;-62
2023/05/10 01:33:28;;;;;;;26.30;14.33;;;13.60;99.90;;;;;;5004616;28;20315;-62
2023/05/10 01:36:19;;;;;;;27.77;13.43;;;13.60;99.90;;;;;;5005995;28;20198;-62
2023/05/10 01:39:17;;;;;;;26.97;13.07;;;13.70;99.90;;;;;;4997907;28;20226;-62
2023/05/10 01:41:54;;;;;;;24.90;13.93;;;13.50;99.90;;;;;;4998731;28;21101;-62
2023/05/10 01:44:59;;;;;;;23.77;13.70;;;13.50;99.90;;;;;;5004484;28;20251;-62
2023/05/10 01:47:44;;;;;;;27.63;13.57;;;13.50;99.90;;;;;;5010291;28;20218;-62
2023/05/10 01:50:22;;;;;;;32.80;15.53;;;13.50;99.90;;;;;;5007507;28;20263;-62
2023/05/10 01:52:56;;;;;;;30.53;16.50;;;13.50;99.90;;;;;;4998370;28;20260;-62
2023/05/10 01:55:27;;;;;;;28.50;12.63;;;13.60;99.90;;;;;;5014234;28;20212;-62
2023/05/10 01:58:09;;;;;;;23.57;12.73;;;13.60;99.90;;;;;;4997055;28;20314;-62
2023/05/10 02:00:39;;;;;;;21.97;12.80;;;13.60;99.90;;;;;;4999475;28;20208;-62
2023/05/10 02:03:09;;;;;;;25.80;12.93;;;13.60;99.90;;;;;;4997793;28;20202;-62
2023/05/10 02:05:37;;;;;;;24.23;13.87;;;13.60;99.90;;;;;;4997351;28;20304;-63
2023/05/10 02:08:06;;;;;;;24.30;15.00;;;13.70;99.90;;;;;;5001631;28;20200;-62
2023/05/10 02:10:38;;;;;;;29.63;15.37;;;13.70;99.90;;;;;;4998775;28;20213;-62
2023/05/10 02:13:08;;;;;;;26.67;14.57;;;13.70;99.90;;;;;;5012596;28;20300;-62
2023/05/10 02:15:36;;;;;;;27.37;15.80;;;13.70;99.90;;;;;;5000401;28;20234;-62
2023/05/10 02:18:05;;;;;;;30.17;17.13;;;13.70;99.90;;;;;;4995075;28;20247;-62
2023/05/10 02:20:34;;;;;;;29.33;16.93;;;13.60;99.90;;;;;;5000138;28;20215;-62
2023/05/10 02:23:03;;;;;;;34.30;17.53;;;13.60;99.90;;;;;;4999614;28;20683;-62
2023/05/10 02:25:31;;;;;;;31.60;17.17;;;13.60;99.90;;;;;;5000660;28;20211;-62
2023/05/10 02:28:01;;;;;;;33.47;18.23;;;13.70;99.90;;;;;;4997004;28;20215;-62
2023/05/10 02:30:31;;;;;;;38.27;19.50;;;13.60;99.90;;;;;;5011644;28;20209;-62
2023/05/10 02:32:58;;;;;;;36.70;20.73;;;13.60;99.90;;;;;;4992814;28;20316;-62
2023/05/10 02:35:26;;;;;;;36.03;20.93;;;13.70;99.90;;;;;;4997125;28;20222;-62
2023/05/10 02:37:54;;;;;;;36.63;19.80;;;13.70;99.90;;;;;;4999732;28;20653;-62
2023/05/10 02:40:23;;;;;;;41.50;21.13;;;13.70;99.90;;;;;;4999979;28;20261;-62
2023/05/10 02:42:56;;;;;;;43.77;22.70;;;13.80;99.90;;;;;;5001271;28;20202;-61
2023/05/10 02:45:27;;;;;;;43.57;21.23;;;13.80;99.90;;;;;;4998522;28;20206;-62
2023/05/10 02:47:56;;;;;;;43.17;22.60;;;13.80;99.90;;;;;;5012585;28;20288;-62
2023/05/10 02:50:29;;;;;;;42.13;22.87;;;13.60;99.90;;;;;;5003056;28;20205;-62
2023/05/10 02:53:02;;;;;;;41.37;23.10;;;13.60;99.90;;;;;;4999367;28;20202;-62
2023/05/10 02:55:36;;;;;;;45.73;23.97;;;13.70;99.90;;;;;;5001700;28;20263;-62
2023/05/10 02:58:03;;;;;;;42.53;23.03;;;13.60;99.90;;;;;;5002520;28;20310;-62
2023/05/10 03:00:31;;;;;;;45.60;24.43;;;13.70;99.90;;;;;;5002182;28;20233;-62
2023/05/10 03:02:58;;;;;;;46.87;24.10;;;13.60;99.90;;;;;;4999283;28;20229;-62
2023/05/10 03:05:25;;;;;;;39.97;23.70;;;13.60;99.90;;;;;;5001959;28;20292;-62
2023/05/10 03:07:53;;;;;;;46.70;24.30;;;13.60;99.90;;;;;;4997809;28;20300;-62
2023/05/10 03:10:26;;;;;;;43.73;23.57;;;13.60;99.90;;;;;;4998231;28;20201;-62
2023/05/10 03:13:10;;;;;;;46.93;26.07;;;13.80;99.90;;;;;;4988716;28;20206;-62
2023/05/10 03:15:50;;;;;;;40.53;24.47;;;13.80;99.90;;;;;;4999689;28;20216;-62
2023/05/10 03:18:36;;;;;;;46.33;24.43;;;13.80;99.90;;;;;;4997230;28;20238;-62
2023/05/10 03:21:07;;;;;;;44.47;24.20;;;13.80;99.90;;;;;;4993899;28;20328;-62
2023/05/10 03:23:50;;;;;;;43.13;25.87;;;13.80;99.90;;;;;;4995031;28;20207;-62
2023/05/10 03:26:37;;;;;;;45.87;25.27;;;13.60;99.90;;;;;;5010736;28;20276;-62
2023/05/10 03:29:06;;;;;;;43.57;25.07;;;13.70;99.90;;;;;;4995949;28;20638;-62
2023/05/10 03:31:33;;;;;;;42.87;23.93;;;13.70;99.90;;;;;;4994773;28;20572;-62
2023/05/10 03:34:00;;;;;;;41.00;23.33;;;13.60;99.90;;;;;;5009086;28;20607;-62
2023/05/10 03:36:26;;;;;;;41.90;22.97;;;13.60;99.90;;;;;;4994282;28;20206;-62
2023/05/10 03:38:53;;;;;;;42.53;24.03;;;13.60;99.90;;;;;;4996380;28;20264;-61
2023/05/10 03:41:21;;;;;;;38.53;23.20;;;13.60;99.90;;;;;;4991064;28;21165;-62
2023/05/10 03:43:48;;;;;;;35.97;21.87;;;13.50;99.90;;;;;;4997385;28;20611;-61
2023/05/10 03:46:15;;;;;;;39.10;21.57;;;13.40;99.90;;;;;;4992602;28;20235;-61
2023/05/10 03:48:41;;;;;;;34.00;20.77;;;13.50;99.90;;;;;;5000819;28;20205;-62
2023/05/10 03:51:08;;;;;;;37.10;22.60;;;13.50;99.90;;;;;;4985361;28;20389;-62
2023/05/10 03:53:35;;;;;;;37.73;21.37;;;13.40;99.90;;;;;;4998916;28;20834;-61
2023/05/10 03:56:02;;;;;;;36.97;20.90;;;13.40;99.90;;;;;;4995818;28;20633;-62
2023/05/10 03:58:29;;;;;;;38.90;21.07;;;13.50;99.90;;;;;;5002868;28;20756;-62
2023/05/10 04:00:56;;;;;;;39.23;22.40;;;13.50;99.90;;;;;;5001587;28;20284;-62
2023/05/10 04:03:23;;;;;;;38.03;20.67;;;13.40;99.90;;;;;;4995047;28;20197;-62
2023/05/10 04:05:59;;;;;;;35.37;20.10;;;13.50;99.90;;;;;;5001011;28;20208;-63
2023/05/10 04:08:26;;;;;;;35.47;20.63;;;13.50;99.90;;;;;;5005551;28;20280;-63
2023/05/10 04:10:53;;;;;;;39.93;21.57;;;13.40;99.90;;;;;;5004650;28;20206;-66
2023/05/10 04:13:20;;;;;;;44.97;21.37;;;13.30;99.90;;;;;;5003359;28;20238;-63
2023/05/10 04:15:47;;;;;;;40.80;20.80;;;13.30;99.90;;;;;;5004932;28;20213;-61
2023/05/10 04:18:14;;;;;;;39.50;22.60;;;13.30;99.90;;;;;;5002879;28;20750;-62
2023/05/10 04:20:41;;;;;;;34.80;19.57;;;13.30;99.90;;;;;;5017270;28;20198;-62
2023/05/10 04:23:07;;;;;;;40.77;20.80;;;13.10;99.90;;;;;;4997864;28;20706;-61
2023/05/10 04:25:35;;;;;;;31.43;18.77;;;13.10;99.90;;;;;;4999361;28;20208;-62
2023/05/10 04:28:02;;;;;;;41.23;19.37;;;13.10;99.90;;;;;;5001782;28;20228;-62
2023/05/10 04:30:29;;;;;;;36.90;19.30;;;13.00;99.90;;;;;;4981824;28;20560;-61
2023/05/10 04:32:56;;;;;;;34.07;18.93;;;13.00;99.90;;;;;;4999228;28;20751;-61
2023/05/10 04:35:23;;;;;;;37.13;20.27;;;13.10;99.90;;;;;;4997051;28;21147;-61
2023/05/10 04:37:50;;;;;;;37.67;20.73;;;13.00;99.90;;;;;;5001659;28;20251;-61
2023/05/10 04:40:16;;;;;;;33.43;19.77;;;13.10;99.90;;;;;;5000728;28;20730;-61
2023/05/10 04:42:44;;;;;;;39.97;21.43;;;13.20;99.90;;;;;;5011358;28;20208;-62
2023/05/10 04:45:11;;;;;;;32.63;18.87;;;13.10;99.90;;;;;;5004165;28;20232;-62
2023/05/10 04:47:38;;;;;;;37.77;19.33;;;13.10;99.90;;;;;;4981227;28;20690;-61
2023/05/10 04:50:06;;;;;;;39.10;22.07;;;13.20;99.90;;;;;;5001936;28;20292;-62
2023/05/10 04:52:33;;;;;;;36.90;20.10;;;13.20;99.90;;;;;;4998787;28;20233;-62
2023/05/10 04:55:00;;;;;;;37.53;21.37;;;13.20;99.90;;;;;;5004754;28;20205;-62
2023/05/10 04:57:27;;;;;;;32.60;19.87;;;13.20;99.90;;;;;;4985282;28;22502;-62
2023/05/10 04:59:54;;;;;;;32.00;19.70;;;13.20;99.90;;;;;;4998355;28;20306;-62
2023/05/10 05:02:21;;;;;;;31.20;19.67;;;13.20;99.90;;;;;;4998197;28;20317;-62
2023/05/10 05:04:48;;;;;;;34.50;20.97;;;13.30;99.90;;;;;;4996756;28;20196;-62
2023/05/10 05:07:15;;;;;;;34.70;21.33;;;13.30;99.90;;;;;;4997450;28;20295;-62
2023/05/10 05:09:42;;;;;;;35.73;20.83;;;13.40;99.90;;;;;;4985863;28;20264;-62
2023/05/10 05:12:13;;;;;;;33.93;18.67;;;13.30;99.90;;;;;;4989702;28;20576;-63
2023/05/10 05:14:41;;;;;;;33.83;19.53;;;13.40;99.90;;;;;;5001047;28;20205;-62
2023/05/10 05:17:08;;;;;;;35.43;19.07;;;13.20;99.90;;;;;;4998770;28;20205;-63
2023/05/10 05:19:35;;;;;;;34.57;18.67;;;13.30;99.90;;;;;;5001631;28;20213;-62
2023/05/10 05:22:02;;;;;;;31.70;19.77;;;13.50;99.90;;;;;;4998362;28;20912;-62
2023/05/10 05:24:34;;;;;;;35.37;19.03;;;13.40;99.90;;;;;;4978686;28;20240;-62
2023/05/10 05:27:01;;;;;;;36.20;19.80;;;13.30;99.90;;;;;;4999263;28;20235;-63
2023/05/10 05:29:28;;;;;;;32.07;18.90;;;13.30;99.90;;;;;;5000805;28;20636;-62
2023/05/10 05:31:55;;;;;;;31.23;18.83;;;13.40;99.90;;;;;;4984481;28;20205;-62
2023/05/10 05:34:22;;;;;;;30.83;18.20;;;13.40;99.90;;;;;;4998624;28;20576;-62
2023/05/10 05:36:49;;;;;;;29.97;18.87;;;13.40;99.90;;;;;;4994913;28;20248;-62
2023/05/10 05:39:16;;;;;;;29.33;18.10;;;13.30;99.90;;;;;;5003679;28;20259;-62
2023/05/10 05:41:43;;;;;;;37.33;19.00;;;13.20;99.90;;;;;;5010415;28;20210;-62
2023/05/10 05:44:10;;;;;;;32.37;19.53;;;13.40;99.90;;;;;;4992765;28;20304;-62
2023/05/10 05:46:37;;;;;;;30.40;19.53;;;13.40;99.90;;;;;;4997165;28;20229;-62
2023/05/10 05:49:04;;;;;;;33.20;19.67;;;13.40;99.90;;;;;;4997023;28;20585;-62
2023/05/10 05:51:31;;;;;;;32.67;17.67;;;13.50;99.90;;;;;;4994072;28;20240;-62
2023/05/10 05:53:57;;;;;;;39.27;18.27;;;13.40;99.90;;;;;;4995695;28;20211;-63
2023/05/10 05:56:24;;;;;;;27.77;17.37;;;13.30;99.90;;;;;;4998010;28;20882;-62
2023/05/10 05:58:51;;;;;;;32.83;17.97;;;13.40;99.90;;;;;;4991231;28;20227;-62
2023/05/10 06:01:18;;;;;;;31.80;17.40;;;13.40;99.90;;;;;;4982525;28;20212;-62
2023/05/10 06:03:45;;;;;;;25.27;17.40;;;13.30;99.90;;;;;;4988157;28;20209;-62
2023/05/10 06:06:12;;;;;;;32.27;17.67;;;13.40;99.90;;;;;;5007585;28;20303;-62
2023/05/10 06:08:39;;;;;;;30.60;17.17;;;13.40;99.90;;;;;;4638093;28;9999914;-62
2023/05/10 06:11:06;;;;;;;30.90;17.63;;;13.40;99.90;;;;;;4993305;28;20208;-64
2023/05/10 06:13:34;;;;;;;27.63;17.13;;;13.50;99.90;;;;;;4985599;28;20212;-62
2023/05/10 06:16:02;;;;;;;32.00;17.67;;;13.40;99.90;;;;;;4988245;28;20580;-62
2023/05/10 06:18:30;;;;;;;24.63;17.00;;;13.40;99.90;;;;;;4992941;28;20218;-62
2023/05/10 06:20:57;;;;;;;33.43;17.37;;;13.40;99.90;;;;;;4998618;28;20296;-62
2023/05/10 06:23:25;;;;;;;33.67;17.43;;;13.40;99.90;;;;;;4994050;28;20600;-62
2023/05/10 06:25:52;;;;;;;28.93;16.97;;;13.40;99.90;;;;;;4996252;28;20216;-62
2023/05/10 06:28:19;;;;;;;30.70;17.63;;;13.50;99.90;;;;;;4992665;28;20770;-62
2023/05/10 06:30:46;;;;;;;30.83;18.57;;;13.60;99.90;;;;;;4992648;28;20336;-62
2023/05/10 06:33:12;;;;;;;32.77;18.67;;;13.60;99.90;;;;;;4982767;28;20224;-62
2023/05/10 06:35:39;;;;;;;30.20;17.37;;;13.80;99.90;;;;;;4988149;28;20694;-62
2023/05/10 06:38:06;;;;;;;32.13;18.33;;;13.70;99.90;;;;;;4988550;28;20201;-62
2023/05/10 06:40:33;;;;;;;33.13;19.33;;;13.70;99.90;;;;;;4975643;28;21257;-62
2023/05/10 06:43:00;;;;;;;34.67;19.80;;;13.70;99.90;;;;;;4981126;28;20586;-63
2023/05/10 06:45:27;;;;;;;32.50;18.73;;;13.80;99.90;;;;;;4996459;28;20197;-63
2023/05/10 06:47:54;;;;;;;30.80;19.97;;;13.70;99.90;;;;;;4991270;28;20202;-62
2023/05/10 06:50:21;;;;;;;32.13;20.43;;;13.70;99.90;;;;;;4991667;28;20207;-63
2023/05/10 06:52:47;;;;;;;33.13;19.70;;;13.70;99.90;;;;;;4983079;28;20238;-62
2023/05/10 06:55:16;;;;;;;30.10;19.53;;;13.70;99.90;;;;;;4987244;28;20206;-62
2023/05/10 06:57:43;;;;;;;31.60;19.60;;;13.80;99.90;;;;;;4980707;28;20202;-63
2023/05/10 07:00:10;;;;;;;29.77;20.27;;;13.70;99.90;;;;;;4985582;28;20279;-62
2023/05/10 07:02:37;;;;;;;26.10;18.20;;;13.70;99.90;;;;;;4997742;28;20230;-64
2023/05/10 07:05:05;;;;;;;24.57;17.40;;;13.80;99.90;;;;;;4982062;28;20214;-62
2023/05/10 07:07:32;;;;;;;28.20;17.93;;;13.80;99.90;;;;;;4987955;28;21328;-62
2023/05/10 07:09:58;;;;;;;24.13;17.10;;;13.80;99.90;;;;;;4983579;28;20271;-63
2023/05/10 07:12:25;;;;;;;27.83;17.23;;;13.80;99.90;;;;;;4990296;28;20556;-62
2023/05/10 07:14:52;;;;;;;28.93;16.20;;;13.90;99.90;;;;;;4992114;28;20261;-63
2023/05/10 07:17:19;;;;;;;28.80;17.40;;;14.00;99.90;;;;;;4992091;28;20897;-62
2023/05/10 07:19:47;;;;;;;23.40;15.60;;;13.90;99.90;;;;;;5001487;28;20241;-62
2023/05/10 07:22:14;;;;;;;28.67;15.60;;;13.80;99.90;;;;;;4993109;28;20228;-63
2023/05/10 07:24:41;;;;;;;22.53;14.63;;;13.80;99.90;;;;;;4995809;28;20634;-62
2023/05/10 07:27:08;;;;;;;22.30;14.33;;;13.90;99.90;;;;;;4990442;28;20211;-63
2023/05/10 07:29:36;;;;;;;25.20;16.40;;;14.10;99.90;;;;;;4989132;28;20216;-62
2023/05/10 07:32:03;;;;;;;27.53;15.83;;;13.90;99.90;;;;;;4990127;28;20234;-69
2023/05/10 07:34:30;;;;;;;26.13;17.07;;;13.80;99.90;;;;;;4990624;28;20206;-62
2023/05/10 07:37:00;;;;;;;27.10;17.60;;;13.80;99.90;;;;;;4991517;28;20592;-63
2023/05/10 07:39:27;;;;;;;28.20;17.40;;;13.90;99.90;;;;;;4988252;28;20233;-63
2023/05/10 07:41:55;;;;;;;30.07;18.43;;;13.90;99.90;;;;;;4994236;28;20223;-63
2023/05/10 07:44:23;;;;;;;25.57;16.97;;;13.90;99.90;;;;;;4993265;28;20201;-63
2023/05/10 07:46:50;;;;;;;26.27;18.70;;;14.00;99.90;;;;;;4996121;28;20300;-63
2023/05/10 07:49:17;;;;;;;26.13;17.17;;;14.00;99.90;;;;;;4990386;28;20215;-62
2023/05/10 07:51:44;;;;;;;30.50;18.97;;;14.10;99.90;;;;;;4990941;28;21339;-63
2023/05/10 07:54:11;;;;;;;30.90;18.00;;;14.20;99.90;;;;;;4992248;28;20216;-63
2023/05/10 07:56:39;;;;;;;24.33;16.20;;;14.10;99.90;;;;;;4999746;28;20220;-62
2023/05/10 07:59:06;;;;;;;23.33;17.30;;;13.90;99.90;;;;;;4997997;28;20708;-62
2023/05/10 08:01:36;;;;;;;31.73;17.67;;;13.80;99.90;;;;;;4992196;28;20233;-62
2023/05/10 08:04:02;;;;;;;24.87;17.40;;;13.90;99.90;;;;;;4995893;28;20203;-63
2023/05/10 08:06:30;;;;;;;25.40;16.60;;;14.00;99.90;;;;;;4991934;28;20252;-62
2023/05/10 08:08:57;;;;;;;25.10;18.07;;;14.10;99.90;;;;;;4999944;28;20564;-63
2023/05/10 08:11:24;;;;;;;24.67;15.57;;;14.20;99.90;;;;;;5002433;28;20209;-63
2023/05/10 08:13:51;;;;;;;24.63;16.70;;;14.10;99.90;;;;;;5004091;28;20209;-63
2023/05/10 08:16:18;;;;;;;28.93;16.77;;;14.20;99.90;;;;;;5003451;28;20209;-62
2023/05/10 08:18:46;;;;;;;25.17;14.90;;;14.30;99.90;;;;;;4999976;28;20230;-62
2023/05/10 08:21:14;;;;;;;23.90;15.07;;;14.30;99.90;;;;;;4998550;28;20210;-63
2023/05/10 08:23:43;;;;;;;24.50;15.20;;;14.30;99.90;;;;;;4995341;28;20228;-62
2023/05/10 08:26:10;;;;;;;23.63;14.97;;;14.30;99.90;;;;;;5000777;28;20614;-63
2023/05/10 08:28:37;;;;;;;19.67;13.40;;;14.30;99.90;;;;;;4999541;28;20196;-63
2023/05/10 08:31:05;;;;;;;20.43;12.77;;;14.30;99.90;;;;;;4995229;28;20275;-64
2023/05/10 08:33:32;;;;;;;21.67;11.90;;;14.50;99.90;;;;;;5001907;28;20240;-63
2023/05/10 08:35:59;;;;;;;17.60;12.20;;;14.50;99.90;;;;;;4999419;28;20291;-63
2023/05/10 08:38:26;;;;;;;16.47;11.83;;;14.50;99.90;;;;;;4997405;28;20785;-62
2023/05/10 08:40:58;;;;;;;17.00;11.37;;;14.60;99.90;;;;;;4993041;28;20268;-64
2023/05/10 08:43:30;;;;;;;14.57;9.90;;;14.50;99.90;;;;;;5005521;28;20653;-62
2023/05/10 08:46:04;;;;;;;14.23;9.63;;;14.70;99.90;;;;;;5002394;28;20647;-63
2023/05/10 08:48:34;;;;;;;15.47;9.73;;;14.50;99.90;;;;;;5005159;28;20596;-63
2023/05/10 08:51:03;;;;;;;14.23;8.83;;;14.60;99.90;;;;;;5003551;28;20272;-62
2023/05/10 08:53:32;;;;;;;11.00;8.93;;;14.60;99.90;;;;;;5003587;28;20212;-62
2023/05/10 08:56:02;;;;;;;12.10;8.10;;;14.60;99.90;;;;;;5001102;28;20270;-63
2023/05/10 08:58:29;;;;;;;10.47;7.77;;;14.60;99.90;;;;;;5003608;28;20237;-68
2023/05/10 09:00:57;;;;;;;10.17;7.80;;;14.70;99.90;;;;;;5003395;28;20224;-63
2023/05/10 09:03:24;;;;;;;11.43;8.17;;;14.60;99.90;;;;;;5002175;28;21103;-63
2023/05/10 09:05:51;;;;;;;8.00;7.17;;;14.70;99.90;;;;;;4993987;28;20212;-62
2023/05/10 09:08:19;;;;;;;10.77;7.00;;;14.90;99.90;;;;;;5019034;28;20294;-63
2023/05/10 09:10:48;;;;;;;7.10;5.97;;;15.00;99.90;;;;;;4998243;28;20205;-63
2023/05/10 09:13:18;;;;;;;8.37;6.23;;;15.10;99.90;;;;;;5006060;28;20213;-63
2023/05/10 09:15:45;;;;;;;12.53;6.73;;;15.20;99.90;;;;;;4999674;28;20878;-63
2023/05/10 09:18:12;;;;;;;8.30;6.77;;;15.10;99.90;;;;;;5002878;28;20655;-63
2023/05/10 09:20:40;;;;;;;10.40;6.93;;;15.00;99.90;;;;;;5003249;28;20218;-63
2023/05/10 09:23:07;;;;;;;10.90;7.83;;;14.90;99.90;;;;;;5001746;28;20193;-63
2023/05/10 09:25:34;;;;;;;11.33;7.20;;;14.80;99.90;;;;;;5004039;28;20591;-63
2023/05/10 09:28:02;;;;;;;11.40;8.67;;;14.90;99.90;;;;;;5000935;28;20764;-63
2023/05/10 09:30:30;;;;;;;12.27;7.87;;;14.90;99.90;;;;;;5003670;28;20291;-63
2023/05/10 09:32:58;;;;;;;13.33;8.80;;;14.90;99.90;;;;;;5003900;28;20230;-62
2023/05/10 09:35:27;;;;;;;14.47;9.77;;;14.80;99.90;;;;;;5004212;28;20674;-63
2023/05/10 09:37:57;;;;;;;16.40;9.83;;;14.90;99.90;;;;;;4999865;28;20239;-63
2023/05/10 09:40:26;;;;;;;12.53;9.03;;;14.80;99.90;;;;;;5015153;28;20246;-63
2023/05/10 09:43:10;;;;;;;12.63;9.30;;;14.90;99.90;;;;;;5002935;28;20557;-63
2023/05/10 09:45:37;;;;;;;14.43;10.33;;;14.80;99.90;;;;;;5006389;28;20231;-63
2023/05/10 09:48:06;;;;;;;13.90;10.43;;;14.90;99.90;;;;;;5004589;28;20211;-63
2023/05/10 09:50:33;;;;;;;12.97;9.83;;;15.10;99.90;;;;;;5002924;28;20210;-63
2023/05/10 09:53:03;;;;;;;13.57;9.63;;;15.20;99.90;;;;;;5003006;28;20266;-63
2023/05/10 09:55:40;;;;;;;13.37;9.40;;;15.10;99.90;;;;;;5017375;28;20569;-63
2023/05/10 09:58:10;;;;;;;11.83;8.03;;;15.30;99.90;;;;;;5018137;28;20233;-63
2023/05/10 10:00:45;;;;;;;11.27;8.27;;;15.20;99.90;;;;;;5006562;28;20690;-63
2023/05/10 10:03:17;;;;;;;14.87;8.20;;;15.20;99.90;;;;;;5001387;28;20202;-63
2023/05/10 10:05:45;;;;;;;11.07;7.73;;;15.20;99.90;;;;;;5005889;28;20277;-63
2023/05/10 10:08:13;;;;;;;10.63;8.43;;;15.20;99.90;;;;;;5003477;28;20198;-63
2023/05/10 10:10:40;;;;;;;9.60;7.93;;;15.20;99.90;;;;;;5007307;28;20237;-63
2023/05/10 10:13:07;;;;;;;11.30;7.77;;;15.30;99.90;;;;;;5002563;28;20566;-63
2023/05/10 10:15:35;;;;;;;13.40;9.03;;;15.20;99.90;;;;;;5003438;28;20233;-63
2023/05/10 10:18:03;;;;;;;11.80;8.43;;;15.30;99.90;;;;;;5008911;28;20805;-63
2023/05/10 10:20:31;;;;;;;12.37;8.30;;;15.40;99.90;;;;;;5003084;28;20239;-63
2023/05/10 10:22:58;;;;;;;12.30;8.17;;;15.30;99.90;;;;;;5004252;28;20560;-68
2023/05/10 10:25:25;;;;;;;13.33;9.17;;;15.20;99.90;;;;;;5003463;28;20774;-63
2023/05/10 10:27:52;;;;;;;11.70;7.43;;;15.20;99.90;;;;;;5009268;28;20656;-63
2023/05/10 10:30:43;;;;;;;14.40;9.17;;;15.20;99.90;;;;;;5004644;28;20209;-63
2023/05/10 10:33:40;;;;;;;10.90;8.40;;;15.20;99.90;;;;;;5005496;28;20229;-63
2023/05/10 10:36:07;;;;;;;13.47;8.47;;;15.40;99.90;;;;;;5001889;28;20215;-62
2023/05/10 10:38:59;;;;;;;12.37;8.27;;;15.50;99.90;;;;;;4998097;28;20202;-63
2023/05/10 10:41:33;;;;;;;12.87;8.30;;;15.40;99.90;;;;;;5005838;28;20672;-63
2023/05/10 10:44:29;;;;;;;10.50;8.40;;;15.50;99.90;;;;;;5005749;28;20208;-63
2023/05/10 10:47:29;;;;;;;11.57;7.23;;;15.50;99.90;;;;;;5003582;28;20687;-63
2023/05/10 10:50:12;;;;;;;12.57;8.17;;;15.60;99.90;;;;;;5004706;28;20198;-60
2023/05/10 10:52:40;;;;;;;10.73;7.97;;;15.60;99.90;;;;;;5022747;28;20208;-60
2023/05/10 10:55:12;;;;;;;11.00;8.37;;;15.80;99.90;;;;;;5005316;28;20263;-60
2023/05/10 10:58:02;;;;;;;10.07;7.90;;;15.80;99.90;;;;;;5005468;28;20228;-60
2023/05/10 11:00:36;;;;;;;11.83;7.83;;;15.80;99.90;;;;;;5016325;28;20216;-60
2023/05/10 11:03:13;;;;;;;9.20;6.83;;;15.80;99.90;;;;;;5003773;28;20658;-60
2023/05/10 11:05:47;;;;;;;8.70;6.53;;;15.80;99.90;;;;;;5000769;28;20202;-60
2023/05/10 11:08:27;;;;;;;9.30;6.97;;;15.80;99.90;;;;;;5002863;28;20208;-60
2023/05/10 11:10:59;;;;;;;8.13;6.70;;;15.60;99.90;;;;;;4999223;28;20285;-60
2023/05/10 11:13:40;;;;;;;10.10;7.70;;;15.80;99.90;;;;;;4999209;28;20289;-60
2023/05/10 11:16:23;;;;;;;9.47;7.10;;;15.80;99.90;;;;;;4999160;28;20240;-60
2023/05/10 11:19:01;;;;;;;9.30;6.87;;;16.10;99.90;;;;;;5002765;28;20248;-60
2023/05/10 11:21:30;;;;;;;8.37;7.20;;;15.90;99.90;;;;;;5001926;28;20213;-61
2023/05/10 11:23:59;;;;;;;11.90;7.73;;;15.80;99.90;;;;;;5004097;28;20648;-59
2023/05/10 11:26:35;;;;;;;11.40;7.70;;;16.00;99.90;;;;;;5004582;28;20579;-60
2023/05/10 11:29:04;;;;;;;11.60;7.97;;;16.40;99.90;;;;;;5004706;28;20222;-60
2023/05/10 11:31:32;;;;;;;9.20;7.20;;;16.40;99.90;;;;;;5003542;28;20392;-60
2023/05/10 11:34:01;;;;;;;11.20;7.77;;;16.30;99.90;;;;;;5016660;28;20329;-60
2023/05/10 11:36:32;;;;;;;10.63;7.63;;;16.70;99.90;;;;;;5017082;28;20281;-60
2023/05/10 11:38:59;;;;;;;9.80;7.90;;;16.60;99.90;;;;;;5001685;28;20642;-60
2023/05/10 11:41:28;;;;;;;9.47;7.23;;;16.40;99.90;;;;;;4996039;28;20238;-60
2023/05/10 11:43:57;;;;;;;10.17;7.17;;;16.50;99.90;;;;;;5004580;28;20248;-60
2023/05/10 11:46:28;;;;;;;16.57;9.43;;;16.40;99.90;;;;;;4999507;28;20202;-60
2023/05/10 11:49:01;;;;;;;9.80;7.57;;;16.30;99.90;;;;;;5003059;28;20262;-60
2023/05/10 11:51:28;;;;;;;11.60;7.20;;;16.20;99.90;;;;;;5003156;28;20666;-60
2023/05/10 11:53:56;;;;;;;9.07;7.40;;;16.30;99.90;;;;;;5005117;28;20240;-64
2023/05/10 11:56:25;;;;;;;9.47;7.70;;;16.10;99.90;;;;;;5008119;28;20260;-60
2023/05/10 11:58:56;;;;;;;8.60;7.80;;;16.20;99.90;;;;;;5006697;28;20237;-60
2023/05/10 12:01:26;;;;;;;11.70;8.87;;;16.10;99.90;;;;;;5007724;28;20597;-60
2023/05/10 12:03:55;;;;;;;10.97;8.67;;;16.00;99.90;;;;;;5006703;28;20292;-60
2023/05/10 12:06:22;;;;;;;11.13;9.17;;;16.00;99.90;;;;;;4996530;28;20199;-60
2023/05/10 12:08:52;;;;;;;11.23;8.33;;;15.90;99.90;;;;;;4997776;28;20198;-60
2023/05/10 12:11:21;;;;;;;10.50;9.50;;;15.80;99.90;;;;;;5000354;28;20202;-60
2023/05/10 12:13:49;;;;;;;9.17;8.27;;;16.00;99.90;;;;;;5016604;28;20561;-60
2023/05/10 12:16:21;;;;;;;9.27;7.87;;;16.10;99.90;;;;;;5005456;28;20207;-60
2023/05/10 12:18:50;;;;;;;7.07;6.37;;;16.10;99.90;;;;;;5005556;28;20599;-60
2023/05/10 12:21:21;;;;;;;7.87;6.87;;;16.00;99.90;;;;;;5005218;28;20578;-60
2023/05/10 12:23:51;;;;;;;7.47;6.50;;;16.00;99.90;;;;;;4998984;28;20198;-60
2023/05/10 12:26:21;;;;;;;8.33;6.60;;;15.80;99.90;;;;;;5000207;28;20257;-60
2023/05/10 12:28:48;;;;;;;7.80;7.00;;;15.70;99.90;;;;;;4999334;28;20295;-60
2023/05/10 12:31:15;;;;;;;8.17;6.83;;;15.80;99.90;;;;;;5003246;28;20639;-60
2023/05/10 12:33:43;;;;;;;8.27;5.80;;;15.70;99.90;;;;;;5003711;28;20573;-60
2023/05/10 12:36:12;;;;;;;8.37;5.87;;;15.80;99.90;;;;;;5016121;28;20531;-60
2023/05/10 12:38:43;;;;;;;5.13;4.63;;;15.80;99.90;;;;;;5000569;28;20263;-60
2023/05/10 12:41:12;;;;;;;5.10;4.60;;;15.80;99.90;;;;;;5001569;28;20243;-59
2023/05/10 12:43:40;;;;;;;5.83;4.47;;;15.70;99.90;;;;;;5000489;28;20251;-59